Olivia — WCB2192 — position and weather

sailwx.info

Track history (hours):
 
Tides and Currents Weather Stations Pressure Air Temp Water Temp Dewpoint Dewpoint Depression Visibility Wind Speed Wind Dir Waves Ship Positions

Olivia

Owner: WEEKS MARINE, INC., CRANFORD, NJ. More information available from US FCC via Universal Licensing System and Coast Guard Vessel Documentation Center.

Last reported at 2018-May-26 23:00 UTC. Time now 2018-May-26 23:13 UTC.
Position N 39°45' W 074°07'.

Length 16 m.

Type: Dredging. MMSI: 367375030.

Date/timePositionNaut miles runAvg speedWind from/ knotsBaromVisibWave heightAir tempDewpointWater temp
2018-May-26 23:00N 39°45' W 074°07'0 0.6
2018-May-26 22:30N 39°45' W 074°07'610.1
2018-May-26 21:57N 39°41' W 074°03'612.7
2018-May-26 21:30N 39°46' W 074°07'2 4.2
2018-May-26 20:57N 39°44' W 074°05'4 6.3
2018-May-26 20:22N 39°41' W 074°07'3 7.0
2018-May-26 19:58N 39°41' W 074°03'0 0.0
2018-May-26 19:15N 39°41' W 074°03'311.5
2018-May-26 19:00N 39°41' W 074°07'3 5.5
2018-May-26 18:29N 39°41' W 074°03'6 8.6
2018-May-26 17:49N 39°46' W 074°07'0 0.0
2018-May-26 17:25N 39°46' W 074°07'0 0.0
2018-May-26 16:55N 39°46' W 074°07'0 0.1
2018-May-26 16:29N 39°46' W 074°07'0 0.0
2018-May-26 15:52N 39°46' W 074°07'2 4.7
2018-May-26 15:30N 39°44' W 074°06'4 7.9
2018-May-26 15:00N 39°41' W 074°03'4 6.2
2018-May-26 14:23N 39°42' W 074°08'0 0.2
2018-May-26 13:44N 39°42' W 074°08'0 0.5
2018-May-26 13:30N 39°42' W 074°08'0 0.2
2018-May-26 12:58N 39°42' W 074°08'0 0.1
2018-May-26 12:28N 39°42' W 074°08'0 0.6
2018-May-26 11:58N 39°42' W 074°08'3 5.1
2018-May-26 11:27N 39°44' W 074°06'2 2.4
2018-May-26 10:43N 39°46' W 074°07'1 3.1
2018-May-26 10:22N 39°45' W 074°05'3 7.6
2018-May-26 09:56N 39°42' W 074°04'4 6.8
2018-May-26 09:23N 39°45' W 074°07'1 0.6
2018-May-26 08:29N 39°46' W 074°07'0 0.0
2018-May-26 07:59N 39°46' W 074°07'0 0.0
2018-May-26 07:17N 39°46' W 074°07'0 0.0
2018-May-26 06:47N 39°46' W 074°07'0 0.0
2018-May-26 06:29N 39°46' W 074°07'0 0.0
2018-May-26 05:23N 39°46' W 074°07'0 0.0
2018-May-26 04:59N 39°46' W 074°07'0 0.0
2018-May-26 01:29N 39°46' W 074°07'0 0.0
2018-May-25 23:41N 39°46' W 074°07'0 0.0
2018-May-25 23:11N 39°46' W 074°07'0 0.0
2018-May-25 22:47N 39°46' W 074°07'0 0.6
2018-May-25 22:30N 39°46' W 074°07'5 8.5
2018-May-25 21:55N 39°41' W 074°03'511.3
2018-May-25 21:29N 39°46' W 074°07'0 0.1
2018-May-25 20:54N 39°46' W 074°07'511.2
2018-May-25 20:30N 39°42' W 074°03'1 1.7
2018-May-25 19:56N 39°41' W 074°03'0 0.1
2018-May-25 19:30N 39°41' W 074°03'0 0.4
2018-May-25 18:45N 39°41' W 074°03'0 0.8
2018-May-25 18:30N 39°41' W 074°03'0 0.4
2018-May-25 17:59N 39°41' W 074°03'0 0.0
2018-May-25 17:29N 39°41' W 074°03'1 1.1
2018-May-25 16:59N 39°41' W 074°04'0 0.6
2018-May-25 16:30N 39°41' W 074°04'0 0.6
2018-May-25 15:58N 39°41' W 074°04'1 1.1
2018-May-25 15:26N 39°42' W 074°03'1 1.3
2018-May-25 14:57N 39°42' W 074°03'510.0
2018-May-25 14:29N 39°46' W 074°07'0 0.3
2018-May-25 13:56N 39°46' W 074°07'510.1
2018-May-25 13:24N 39°41' W 074°03'0 0.1
2018-May-25 12:38N 39°41' W 074°02'1 2.2
2018-May-25 12:16N 39°41' W 074°01'0 0.4
2018-May-25 11:41N 39°41' W 074°02'1 6.4
2018-May-25 11:28N 39°42' W 074°03'4 9.4
2018-May-25 11:00N 39°45' W 074°07'4 6.9
2018-May-25 10:28N 39°43' W 074°03'0 0.5
2018-May-25 09:54N 39°43' W 074°04'4 5.5
2018-May-25 09:14N 39°46' W 074°07'0 0.7
2018-May-25 08:57N 39°46' W 074°07'0 0.0
2018-May-25 08:15N 39°46' W 074°07'0 0.0
2018-May-25 06:57N 39°46' W 074°07'0 0.0
2018-May-25 06:27N 39°46' W 074°07'0 0.0
2018-May-25 05:57N 39°46' W 074°07'0 0.0
2018-May-25 04:15N 39°46' W 074°07'0 0.0
2018-May-25 03:48N 39°46' W 074°07'0 0.0
2018-May-25 03:15N 39°46' W 074°07'0 0.0
2018-May-25 02:54N 39°46' W 074°07'0 0.0
2018-May-25 00:21N 39°46' W 074°07'0 0.0
2018-May-24 23:51N 39°46' W 074°07'0 0.0
2018-May-24 22:09N 39°46' W 074°07'0 0.0
2018-May-24 21:57N 39°46' W 074°07'0 0.0
2018-May-24 21:09N 39°46' W 074°07'0 0.0
2018-May-24 20:39N 39°46' W 074°07'0 0.0
2018-May-24 20:09N 39°46' W 074°07'0 0.0
2018-May-24 19:51N 39°46' W 074°07'0 0.0
2018-May-24 19:13N 39°46' W 074°07'1 1.8
2018-May-24 18:33N 39°47' W 074°07'0 0.0
2018-May-24 18:30N 39°47' W 074°07'5 9.7
2018-May-24 18:00N 39°42' W 074°06'4 6.6
2018-May-24 17:26N 39°46' W 074°07'0 0.0
2018-May-24 16:37N 39°46' W 074°07'0 0.0
2018-May-24 16:19N 39°46' W 074°07'0 0.0
2018-May-24 15:55N 39°46' W 074°07'0 0.0
2018-May-24 15:25N 39°46' W 074°07'0 0.0
2018-May-24 14:55N 39°46' W 074°07'1 0.8
2018-May-24 14:15N 39°45' W 074°07'0 0.0
2018-May-24 13:57N 39°45' W 074°07'1 0.0
2018-May-23 19:44N 39°46' W 074°07'310.2
2018-May-23 19:28N 39°44' W 074°04'3 5.0
2018-May-23 18:53N 39°41' W 074°04'0 0.9
2018-May-23 18:26N 39°40' W 074°04'0 0.2
2018-May-23 18:00N 39°41' W 074°04'2 3.3
2018-May-23 17:29N 39°42' W 074°03'1 1.0
2018-May-23 16:55N 39°43' W 074°04'615.0
2018-May-23 16:30N 39°38' W 074°09'1 1.2
2018-May-23 15:40N 39°38' W 074°10'0 2.1
2018-May-23 15:30N 39°37' W 074°10'610.4
2018-May-23 14:57N 39°42' W 074°07'3 5.0
2018-May-23 14:17N 39°46' W 074°07'0 0.0
2018-May-23 13:44N 39°46' W 074°07'0 0.0
2018-May-23 13:26N 39°46' W 074°07'0 0.0
2018-May-23 12:44N 39°46' W 074°07'0 0.0
2018-May-23 12:20N 39°46' W 074°07'1 1.1
2018-May-23 11:46N 39°46' W 074°07'1 1.5
2018-May-23 11:21N 39°46' W 074°07'0 0.0
2018-May-22 19:54N 39°46' W 074°07'4 9.6
2018-May-22 19:30N 39°42' W 074°04'2 3.8
2018-May-22 18:59N 39°40' W 074°04'0 0.5
2018-May-22 18:30N 39°40' W 074°04'0 0.7
2018-May-22 17:57N 39°40' W 074°05'0 0.7
2018-May-22 17:30N 39°40' W 074°05'1 1.3
2018-May-22 16:58N 39°41' W 074°04'0 0.4
2018-May-22 16:29N 39°41' W 074°04'0 0.7
2018-May-22 15:57N 39°41' W 074°05'1 1.6
2018-May-22 15:21N 39°40' W 074°06'0 1.1
2018-May-22 14:58N 39°40' W 074°05'1 1.3
2018-May-22 14:24N 39°40' W 074°04'0 0.9
2018-May-22 13:58N 39°40' W 074°04'0 0.2
2018-May-22 13:24N 39°40' W 074°04'0 0.9
2018-May-22 13:00N 39°40' W 074°04'1 1.4
2018-May-22 12:29N 39°40' W 074°05'0 0.7
2018-May-22 11:46N 39°40' W 074°05'2 7.3
2018-May-22 11:30N 39°41' W 074°03'5 8.4
2018-May-22 10:53N 39°46' W 074°07'0 0.0
2018-May-21 20:20N 39°46' W 074°07'0 0.0
2018-May-21 19:50N 39°46' W 074°07'0 0.0
2018-May-21 19:26N 39°46' W 074°07'0 0.0
2018-May-21 17:50N 39°46' W 074°07'0 0.0
2018-May-21 16:38N 39°46' W 074°07'0 0.0
2018-May-21 16:26N 39°46' W 074°07'0 0.0
2018-May-21 15:08N 39°46' W 074°07'0 0.0
2018-May-21 14:44N 39°46' W 074°07'0 0.0
2018-May-21 14:20N 39°46' W 074°07'0 0.0
2018-May-21 13:56N 39°46' W 074°07'0 0.0
2018-May-21 13:27N 39°46' W 074°07'0 0.2
2018-May-21 12:51N 39°46' W 074°07'0 0.2
2018-May-21 12:22N 39°46' W 074°07'0 0.0
2018-May-21 11:34N 39°46' W 074°07'0 0.0
2018-May-20 19:50N 39°46' W 074°07'0 0.0
2018-May-20 19:08N 39°46' W 074°07'0 0.0
2018-May-20 18:32N 39°46' W 074°07'0 0.0
2018-May-20 18:26N 39°46' W 074°07'0 0.0
2018-May-20 17:50N 39°46' W 074°07'0 0.0
2018-May-20 17:26N 39°46' W 074°07'0 0.0
2018-May-20 16:56N 39°46' W 074°07'0 0.0
2018-May-20 16:14N 39°46' W 074°07'0 0.0
2018-May-20 15:59N 39°46' W 074°07'0 0.0
2018-May-20 15:29N 39°46' W 074°07'0 0.0
2018-May-20 14:56N 39°46' W 074°07'1 1.4
2018-May-20 14:29N 39°46' W 074°07'1 1.1
2018-May-20 13:54N 39°46' W 074°07'0 0.0
2018-May-20 12:51N 39°46' W 074°07'0 0.0
2018-May-20 12:21N 39°46' W 074°07'0 0.0
2018-May-20 11:51N 39°46' W 074°07'0 0.0
2018-May-19 19:42N 39°46' W 074°07'0 0.0
2018-May-19 19:30N 39°46' W 074°07'1 1.1
2018-May-19 18:59N 39°46' W 074°07'1 0.6
2018-May-19 18:00N 39°46' W 074°07'0 0.0
2018-May-19 17:30N 39°46' W 074°07'0 0.0
2018-May-19 17:00N 39°46' W 074°07'0 0.0
2018-May-19 12:51N 39°46' W 074°07'0 0.0
2018-May-19 12:30N 39°46' W 074°07'0 0.0
2018-May-18 20:19N 39°46' W 074°07'0 0.0
2018-May-18 20:00N 39°46' W 074°07'0 0.0
2018-May-18 19:30N 39°46' W 074°07'0 0.0
2018-May-18 18:48N 39°46' W 074°07'0 0.0
2018-May-18 18:24N 39°46' W 074°07'0 0.0
2018-May-18 18:00N 39°46' W 074°07'0 0.0
2018-May-18 17:12N 39°46' W 074°07'1 3.2
2018-May-18 17:00N 39°46' W 074°07'1 1.9
2018-May-18 16:27N 39°45' W 074°07'1 1.1
2018-May-18 15:58N 39°46' W 074°07'0 0.0
2018-May-18 15:28N 39°46' W 074°07'0 0.0
2018-May-18 14:58N 39°46' W 074°07'0 0.0
2018-May-18 14:28N 39°46' W 074°07'0 0.0
2018-May-18 13:40N 39°46' W 074°07'0 0.0
2018-May-18 13:22N 39°46' W 074°07'0 0.1
2018-May-18 12:32N 39°46' W 074°07'0 0.0
2018-May-18 12:20N 39°46' W 074°07'0 0.0
2018-May-18 11:56N 39°46' W 074°07'1 0.7
2018-May-18 10:59N 39°46' W 074°07'0 0.8
2018-May-18 10:30N 39°46' W 074°07'0 0.0
2018-May-17 20:48N 39°46' W 074°07'0 0.7
2018-May-17 20:28N 39°46' W 074°07'0 0.3
2018-May-17 19:37N 39°46' W 074°07'0 0.0
2018-May-17 19:25N 39°46' W 074°07'0 0.0
2018-May-17 18:49N 39°46' W 074°07'0 0.0
2018-May-17 18:25N 39°46' W 074°07'0 0.0
2018-May-17 17:49N 39°46' W 074°07'0 0.0
2018-May-17 17:19N 39°46' W 074°07'0 1.1
2018-May-17 16:56N 39°46' W 074°07'0 0.7
2018-May-17 16:23N 39°46' W 074°07'0 0.0
2018-May-17 15:59N 39°46' W 074°07'0 0.0
2018-May-17 15:29N 39°46' W 074°07'2 4.2
2018-May-17 14:57N 39°44' W 074°05'4 8.0
2018-May-17 14:27N 39°40' W 074°04'0 0.5
2018-May-17 14:00N 39°40' W 074°04'0 0.7
2018-May-17 13:29N 39°40' W 074°04'2 4.4
2018-May-17 13:00N 39°39' W 074°07'2 3.1
2018-May-17 12:28N 39°41' W 074°07'1 2.6
2018-May-17 11:59N 39°42' W 074°05'3 6.7
2018-May-17 11:28N 39°45' W 074°05'  
Track history (hours):
 
Tides and Currents Weather Stations Pressure Air Temp Water Temp Dewpoint Dewpoint Depression Visibility Wind Speed Wind Dir Waves Ship Positions

Olivia

Owner: WEEKS MARINE, INC., CRANFORD, NJ. More information available from US FCC via Universal Licensing System and Coast Guard Vessel Documentation Center.

Last reported at 2018-May-26 23:00 UTC. Time now 2018-May-26 23:13 UTC.
Position N 39°45' W 074°07'.

Length 16 m.

Type: Dredging. MMSI: 367375030.

Date/timePositionNaut miles runAvg speedWind from/ knotsBaromVisibWave heightAir tempDewpointWater temp
2018-May-26 23:00N 39°45' W 074°07'0 0.6
2018-May-26 22:30N 39°45' W 074°07'610.1
2018-May-26 21:57N 39°41' W 074°03'612.7
2018-May-26 21:30N 39°46' W 074°07'2 4.2
2018-May-26 20:57N 39°44' W 074°05'4 6.3
2018-May-26 20:22N 39°41' W 074°07'3 7.0
2018-May-26 19:58N 39°41' W 074°03'0 0.0
2018-May-26 19:15N 39°41' W 074°03'311.5
2018-May-26 19:00N 39°41' W 074°07'3 5.5
2018-May-26 18:29N 39°41' W 074°03'6 8.6
2018-May-26 17:49N 39°46' W 074°07'0 0.0
2018-May-26 17:25N 39°46' W 074°07'0 0.0
2018-May-26 16:55N 39°46' W 074°07'0 0.1
2018-May-26 16:29N 39°46' W 074°07'0 0.0
2018-May-26 15:52N 39°46' W 074°07'2 4.7
2018-May-26 15:30N 39°44' W 074°06'4 7.9
2018-May-26 15:00N 39°41' W 074°03'4 6.2
2018-May-26 14:23N 39°42' W 074°08'0 0.2
2018-May-26 13:44N 39°42' W 074°08'0 0.5
2018-May-26 13:30N 39°42' W 074°08'0 0.2
2018-May-26 12:58N 39°42' W 074°08'0 0.1
2018-May-26 12:28N 39°42' W 074°08'0 0.6
2018-May-26 11:58N 39°42' W 074°08'3 5.1
2018-May-26 11:27N 39°44' W 074°06'2 2.4
2018-May-26 10:43N 39°46' W 074°07'1 3.1
2018-May-26 10:22N 39°45' W 074°05'3 7.6
2018-May-26 09:56N 39°42' W 074°04'4 6.8
2018-May-26 09:23N 39°45' W 074°07'1 0.6
2018-May-26 08:29N 39°46' W 074°07'0 0.0
2018-May-26 07:59N 39°46' W 074°07'0 0.0
2018-May-26 07:17N 39°46' W 074°07'0 0.0
2018-May-26 06:47N 39°46' W 074°07'0 0.0
2018-May-26 06:29N 39°46' W 074°07'0 0.0
2018-May-26 05:23N 39°46' W 074°07'0 0.0
2018-May-26 04:59N 39°46' W 074°07'0 0.0
2018-May-26 01:29N 39°46' W 074°07'0 0.0
2018-May-25 23:41N 39°46' W 074°07'0 0.0
2018-May-25 23:11N 39°46' W 074°07'0 0.0
2018-May-25 22:47N 39°46' W 074°07'0 0.6
2018-May-25 22:30N 39°46' W 074°07'5 8.5
2018-May-25 21:55N 39°41' W 074°03'511.3
2018-May-25 21:29N 39°46' W 074°07'0 0.1
2018-May-25 20:54N 39°46' W 074°07'511.2
2018-May-25 20:30N 39°42' W 074°03'1 1.7
2018-May-25 19:56N 39°41' W 074°03'0 0.1
2018-May-25 19:30N 39°41' W 074°03'0 0.4
2018-May-25 18:45N 39°41' W 074°03'0 0.8
2018-May-25 18:30N 39°41' W 074°03'0 0.4
2018-May-25 17:59N 39°41' W 074°03'0 0.0
2018-May-25 17:29N 39°41' W 074°03'1 1.1
2018-May-25 16:59N 39°41' W 074°04'0 0.6
2018-May-25 16:30N 39°41' W 074°04'0 0.6
2018-May-25 15:58N 39°41' W 074°04'1 1.1
2018-May-25 15:26N 39°42' W 074°03'1 1.3
2018-May-25 14:57N 39°42' W 074°03'510.0
2018-May-25 14:29N 39°46' W 074°07'0 0.3
2018-May-25 13:56N 39°46' W 074°07'510.1
2018-May-25 13:24N 39°41' W 074°03'0 0.1
2018-May-25 12:38N 39°41' W 074°02'1 2.2
2018-May-25 12:16N 39°41' W 074°01'0 0.4
2018-May-25 11:41N 39°41' W 074°02'1 6.4
2018-May-25 11:28N 39°42' W 074°03'4 9.4
2018-May-25 11:00N 39°45' W 074°07'4 6.9
2018-May-25 10:28N 39°43' W 074°03'0 0.5
2018-May-25 09:54N 39°43' W 074°04'4 5.5
2018-May-25 09:14N 39°46' W 074°07'0 0.7
2018-May-25 08:57N 39°46' W 074°07'0 0.0
2018-May-25 08:15N 39°46' W 074°07'0 0.0
2018-May-25 06:57N 39°46' W 074°07'0 0.0
2018-May-25 06:27N 39°46' W 074°07'0 0.0
2018-May-25 05:57N 39°46' W 074°07'0 0.0
2018-May-25 04:15N 39°46' W 074°07'0 0.0
2018-May-25 03:48N 39°46' W 074°07'0 0.0
2018-May-25 03:15N 39°46' W 074°07'0 0.0
2018-May-25 02:54N 39°46' W 074°07'0 0.0
2018-May-25 00:21N 39°46' W 074°07'0 0.0
2018-May-24 23:51N 39°46' W 074°07'0 0.0
2018-May-24 22:09N 39°46' W 074°07'0 0.0
2018-May-24 21:57N 39°46' W 074°07'0 0.0
2018-May-24 21:09N 39°46' W 074°07'0 0.0
2018-May-24 20:39N 39°46' W 074°07'0 0.0
2018-May-24 20:09N 39°46' W 074°07'0 0.0
2018-May-24 19:51N 39°46' W 074°07'0 0.0
2018-May-24 19:13N 39°46' W 074°07'1 1.8
2018-May-24 18:33N 39°47' W 074°07'0 0.0
2018-May-24 18:30N 39°47' W 074°07'5 9.7
2018-May-24 18:00N 39°42' W 074°06'4 6.6
2018-May-24 17:26N 39°46' W 074°07'0 0.0
2018-May-24 16:37N 39°46' W 074°07'0 0.0
2018-May-24 16:19N 39°46' W 074°07'0 0.0
2018-May-24 15:55N 39°46' W 074°07'0 0.0
2018-May-24 15:25N 39°46' W 074°07'0 0.0
2018-May-24 14:55N 39°46' W 074°07'1 0.8
2018-May-24 14:15N 39°45' W 074°07'0 0.0
2018-May-24 13:57N 39°45' W 074°07'1 0.0
2018-May-23 19:44N 39°46' W 074°07'310.2
2018-May-23 19:28N 39°44' W 074°04'3 5.0
2018-May-23 18:53N 39°41' W 074°04'0 0.9
2018-May-23 18:26N 39°40' W 074°04'0 0.2
2018-May-23 18:00N 39°41' W 074°04'2 3.3
2018-May-23 17:29N 39°42' W 074°03'1 1.0
2018-May-23 16:55N 39°43' W 074°04'615.0
2018-May-23 16:30N 39°38' W 074°09'1 1.2
2018-May-23 15:40N 39°38' W 074°10'0 2.1
2018-May-23 15:30N 39°37' W 074°10'610.4
2018-May-23 14:57N 39°42' W 074°07'3 5.0
2018-May-23 14:17N 39°46' W 074°07'0 0.0
2018-May-23 13:44N 39°46' W 074°07'0 0.0
2018-May-23 13:26N 39°46' W 074°07'0 0.0
2018-May-23 12:44N 39°46' W 074°07'0 0.0
2018-May-23 12:20N 39°46' W 074°07'1 1.1
2018-May-23 11:46N 39°46' W 074°07'1 1.5
2018-May-23 11:21N 39°46' W 074°07'0 0.0
2018-May-22 19:54N 39°46' W 074°07'4 9.6
2018-May-22 19:30N 39°42' W 074°04'2 3.8
2018-May-22 18:59N 39°40' W 074°04'0 0.5
2018-May-22 18:30N 39°40' W 074°04'0 0.7
2018-May-22 17:57N 39°40' W 074°05'0 0.7
2018-May-22 17:30N 39°40' W 074°05'1 1.3
2018-May-22 16:58N 39°41' W 074°04'0 0.4
2018-May-22 16:29N 39°41' W 074°04'0 0.7
2018-May-22 15:57N 39°41' W 074°05'1 1.6
2018-May-22 15:21N 39°40' W 074°06'0 1.1
2018-May-22 14:58N 39°40' W 074°05'1 1.3
2018-May-22 14:24N 39°40' W 074°04'0 0.9
2018-May-22 13:58N 39°40' W 074°04'0 0.2
2018-May-22 13:24N 39°40' W 074°04'0 0.9
2018-May-22 13:00N 39°40' W 074°04'1 1.4
2018-May-22 12:29N 39°40' W 074°05'0 0.7
2018-May-22 11:46N 39°40' W 074°05'2 7.3
2018-May-22 11:30N 39°41' W 074°03'5 8.4
2018-May-22 10:53N 39°46' W 074°07'0 0.0
2018-May-21 20:20N 39°46' W 074°07'0 0.0
2018-May-21 19:50N 39°46' W 074°07'0 0.0
2018-May-21 19:26N 39°46' W 074°07'0 0.0
2018-May-21 17:50N 39°46' W 074°07'0 0.0
2018-May-21 16:38N 39°46' W 074°07'0 0.0
2018-May-21 16:26N 39°46' W 074°07'0 0.0
2018-May-21 15:08N 39°46' W 074°07'0 0.0
2018-May-21 14:44N 39°46' W 074°07'0 0.0
2018-May-21 14:20N 39°46' W 074°07'0 0.0
2018-May-21 13:56N 39°46' W 074°07'0 0.0
2018-May-21 13:27N 39°46' W 074°07'0 0.2
2018-May-21 12:51N 39°46' W 074°07'0 0.2
2018-May-21 12:22N 39°46' W 074°07'0 0.0
2018-May-21 11:34N 39°46' W 074°07'0 0.0
2018-May-20 19:50N 39°46' W 074°07'0 0.0
2018-May-20 19:08N 39°46' W 074°07'0 0.0
2018-May-20 18:32N 39°46' W 074°07'0 0.0
2018-May-20 18:26N 39°46' W 074°07'0 0.0
2018-May-20 17:50N 39°46' W 074°07'0 0.0
2018-May-20 17:26N 39°46' W 074°07'0 0.0
2018-May-20 16:56N 39°46' W 074°07'0 0.0
2018-May-20 16:14N 39°46' W 074°07'0 0.0
2018-May-20 15:59N 39°46' W 074°07'0 0.0
2018-May-20 15:29N 39°46' W 074°07'0 0.0
2018-May-20 14:56N 39°46' W 074°07'1 1.4
2018-May-20 14:29N 39°46' W 074°07'1 1.1
2018-May-20 13:54N 39°46' W 074°07'0 0.0
2018-May-20 12:51N 39°46' W 074°07'0 0.0
2018-May-20 12:21N 39°46' W 074°07'0 0.0
2018-May-20 11:51N 39°46' W 074°07'0 0.0
2018-May-19 19:42N 39°46' W 074°07'0 0.0
2018-May-19 19:30N 39°46' W 074°07'1 1.1
2018-May-19 18:59N 39°46' W 074°07'1 0.6
2018-May-19 18:00N 39°46' W 074°07'0 0.0
2018-May-19 17:30N 39°46' W 074°07'0 0.0
2018-May-19 17:00N 39°46' W 074°07'0 0.0
2018-May-19 12:51N 39°46' W 074°07'0 0.0
2018-May-19 12:30N 39°46' W 074°07'0 0.0
2018-May-18 20:19N 39°46' W 074°07'0 0.0
2018-May-18 20:00N 39°46' W 074°07'0 0.0
2018-May-18 19:30N 39°46' W 074°07'0 0.0
2018-May-18 18:48N 39°46' W 074°07'0 0.0
2018-May-18 18:24N 39°46' W 074°07'0 0.0
2018-May-18 18:00N 39°46' W 074°07'0 0.0
2018-May-18 17:12N 39°46' W 074°07'1 3.2
2018-May-18 17:00N 39°46' W 074°07'1 1.9
2018-May-18 16:27N 39°45' W 074°07'1 1.1
2018-May-18 15:58N 39°46' W 074°07'0 0.0
2018-May-18 15:28N 39°46' W 074°07'0 0.0
2018-May-18 14:58N 39°46' W 074°07'0 0.0
2018-May-18 14:28N 39°46' W 074°07'0 0.0
2018-May-18 13:40N 39°46' W 074°07'0 0.0
2018-May-18 13:22N 39°46' W 074°07'0 0.1
2018-May-18 12:32N 39°46' W 074°07'0 0.0
2018-May-18 12:20N 39°46' W 074°07'0 0.0
2018-May-18 11:56N 39°46' W 074°07'1 0.7
2018-May-18 10:59N 39°46' W 074°07'0 0.8
2018-May-18 10:30N 39°46' W 074°07'0 0.0
2018-May-17 20:48N 39°46' W 074°07'0 0.7
2018-May-17 20:28N 39°46' W 074°07'0 0.3
2018-May-17 19:37N 39°46' W 074°07'0 0.0
2018-May-17 19:25N 39°46' W 074°07'0 0.0
2018-May-17 18:49N 39°46' W 074°07'0 0.0
2018-May-17 18:25N 39°46' W 074°07'0 0.0
2018-May-17 17:49N 39°46' W 074°07'0 0.0
2018-May-17 17:19N 39°46' W 074°07'0 1.1
2018-May-17 16:56N 39°46' W 074°07'0 0.7
2018-May-17 16:23N 39°46' W 074°07'0 0.0
2018-May-17 15:59N 39°46' W 074°07'0 0.0
2018-May-17 15:29N 39°46' W 074°07'2 4.2
2018-May-17 14:57N 39°44' W 074°05'4 8.0
2018-May-17 14:27N 39°40' W 074°04'0 0.5
2018-May-17 14:00N 39°40' W 074°04'0 0.7
2018-May-17 13:29N 39°40' W 074°04'2 4.4
2018-May-17 13:00N 39°39' W 074°07'2 3.1
2018-May-17 12:28N 39°41' W 074°07'1 2.6
2018-May-17 11:59N 39°42' W 074°05'3 6.7
2018-May-17 11:28N 39°45' W 074°05'  

Dump ship's entire track history